Detall de PIREP

Printer-friendly versionPDF version

[2013/09/06 11:21:00]
Flight IATA:CT0001
Pilot Number:012
Company ICAO:CAT
Aircraft Type:B744/E
PAX:256
Departing Airport: LEAL
Destination Airport: LEMH
Alternate Airport:LEPA
Online: VATSIM
Route:MITOS B46 PTC
Flight Level:F240
No Slew and time accel
No pause
Crash detect
Detect pilot in Cockpit between each 30 and 45 minutes
11:21 Zero fuel Weight: 465803 Lbs, Fuel Weight: 128501 Lbs
11:21 VATSIM:LEAL 061100Z 21006KT 130V260 9999 FEW020 29/18 Q1013 NOSIG
11:21 VATSIM:LEMH 061100Z 23005KT 140V300 9999 FEW025TCU 26/20 Q1014
11:21 VOICE CATALONIAN
11:21 Parking Brakes off
11:26 Take-off
11:26 Take off Weight: 592450 Lbs
11:26 Wind: 187º @ 006 Knots Heading: 102º
11:26 POS N38º 16´ 52´´ W000º 33´ 12´´
11:26 Gear Up: 186 Knots
11:26 Flaps:3 at 186 Knots
11:27 Flaps:2 at 205 Knots
11:27 Flaps:1 at 208 Knots
11:27 Flaps:0 at 192 Knots
11:35 TOC
11:35 Fuel Weight: 118063 Lb
11:41 Wind:232º@034 Knots Heading: 069º Ground Speed: 489 Knots Altitude 24005 ft
11:49 TOD
11:49 Fuel Weight: 113281 Lb
11:56 Wind:257º@014 Knots Heading: 072º Ground Speed: 367 Knots Altitude 10928 ft
12:02 Flaps:1 at 209 Knots
12:02 Flaps:2 at 209 Knots
12:03 Flaps:3 at 207 Knots
12:03 Gear Down: 193 Knots
12:03 Flaps:4 at 194 Knots
12:03 Flaps:5 at 189 Knots
12:04 Flaps:6 at 168 Knots
12:06 TouchDown:Rate -203 ft/min Speed: 146 Knots
12:06 VATSIM:LEMH 061200Z 23007KT 190V280 9999 FEW025TCU 28/19 Q1014
12:06 Land
12:06 Wind:229º@005 Knots
12:06 Heading: 007º
12:06 Flight Duration: 00:40
12:06 Landing Weight: 575535 Lbs
12:06 POS N39º 52´ 02´´ E004º 13´ 10´´
12:09 Parking brakes on
12:09 Block to Block Duration: 00:48
12:09 Final Fuel: 109133 Lbls
12:09 Spent Fuel: 19367 Lbls
12:09 Flight Length: 251 NM
12:09 TOD Land Length: 86 NM

Exportar CSV

Powered by Drupal - Modified by Danger4k